Tiempo atmosférico en la estación meteorológica de Agaete, Las Palmas (5 m.)



Fecha
DESCASC
Temp. máxima en grados centígrados (hora)
DESCASC
Temp. mínima en grados centígrados (hora)
DESCASC
Temp. media en grados centígrados
DESCASC
Racha de viento máxima en m/sg (hora)
DESCASC
Velocidad máxima media en intervalos de 10 minutos(hora)
DESCASC
Precipitaciones diarias en mm
DESCASC
Precipitaciones de 00:00 a 06:00 en mm
DESCASC
Precipitaciones de 06:00 a 12:00 en mm
DESCASC
Precipitaciones de 12:00 a 18:00 en mm
DESCASC
Precipitaciones de 18:00 a 24:00 en mm
DESCASC
17-08-2018 25.5 (13:50) 20.9 (01:30) 23.2 11.94 (18:10) 7.78 (12:20) 0 0 0 0 0
16-08-2018 25.3 (16:40) 21.5 (05:40) 23.4 13.61 (16:30) 7.78 (18:00) 0 0 0 0 0
15-08-2018 28 (01:50) 22.3 (05:30) 25.1 16.39 (14:10) 11.11 (05:30) 0 0 0 0 0
14-08-2018 30.6 (01:50) 24.2 (20:50) 27.4 12.78 (16:40) 7.78 (17:00) 0 0 0 0 0
13-08-2018 29.7 (22:50) 23.7 (09:10) 26.7 14.72 (20:20) 7.5 (04:00) 0 0 0 0 0
12-08-2018 29.8 (23:30) 21.8 (00:00) 25.8 18.06 (15:00) 11.11 (15:00) 0 0 0 0 0
11-08-2018 24.3 (13:30) 21.3 (00:00) 22.8 13.06 (12:20) 7.5 (23:30) 0 0 0 0 0
10-08-2018 24.6 (18:10) 20.9 (00:00) 22.8 13.33 (14:30) 7.78 (13:20) 0 0 0 0 0
09-08-2018 25.6 (15:00) 21.9 (00:00) 23.8 16.39 (14:10) 10 (14:30) 0 0 0 0 0
08-08-2018 25.5 (14:40) 22 (00:00) 23.8 16.39 (15:10) 9.72 (06:20) 0 0 0 0 0
07-08-2018 25.4 (15:30) 22.5 (00:00) 23.9 17.5 (14:10) 11.11 (14:30) 0 0 0 0 0
06-08-2018 28.1 (16:50) 22.5 (00:00) 25.3 16.11 (14:10) 11.11 (13:20) 0 0 0 0 0
05-08-2018 25.2 (14:40) 22.4 (00:00) 23.8 14.17 (15:10) 9.17 (15:50) 0 0 0 0 0
04-08-2018 24.9 (14:20) 22 (07:40) 23.4 12.22 (23:30) 7.5 (23:40) 0 0 0 0 0
03-08-2018 25.1 (15:10) 22.1 (00:00) 23.6 10.28 (18:10) 6.67 (17:20) 0 0 0 0 0
02-08-2018 25.3 (18:00) 21.4 (00:00) 23.3 11.94 (15:10) 8.06 (15:10) 0 0 0 0 0
01-08-2018 25.8 (16:00) 21.9 (22:40) 23.8 13.33 (14:10) 6.94 (12:40) 0 0 0 0 0
31-07-2018 25.2 (15:00) 21.7 (00:00) 23.5 16.11 (17:10) 9.72 (01:20) 0 0 0 0 0
30-07-2018 27.3 (15:40) 21.2 (00:00) 24.3 16.67 (19:50) 10.83 (23:40) 0 0 0 0 0
29-07-2018 26.9 (16:10) 21.5 (00:00) 24.2 12.22 (00:10) 6.94 (18:40) 0 0 0 0 0
28-07-2018 25.5 (15:10) 21.7 (00:00) 23.6 17.5 (10:50) 10 (14:10) 0 0 0 0 0
27-07-2018 25.2 (15:30) 21.2 (00:00) 23.2 16.39 (10:10) 10.28 (14:40) 0 0 0 0 0
26-07-2018 25.2 (14:40) 21.5 (00:00) 23.4 16.11 (11:00) 9.72 (11:20) 0 0 0 0 0
25-07-2018 25.1 (14:20) 21.3 (00:00) 23.2 13.89 (16:30) 8.61 (19:40) 0 0 0 0 0
24-07-2018 24.7 (15:10) 21.2 (00:00) 23 15.83 (14:10) 8.89 (14:20) 0 0 0 0 0
23-07-2018 25.4 (15:50) 21.2 (00:00) 23.3 14.44 (16:10) 8.89 (14:40) 0 0 0 0 0
22-07-2018 24.5 (16:00) 21 (00:00) 22.8 14.44 (21:50) 9.72 (21:00) 0 0 0 0 0
21-07-2018 24.3 (15:20) 21.2 (00:00) 22.8 16.67 (19:10) 10 (02:40) 0 0 0 0 0
20-07-2018 24.4 (16:40) 20.9 (00:00) 22.6 16.11 (05:40) 10.56 (05:50) 0 0 0 0 0

Gráficas

Temp. máximas Temp. mínimas Temp. medias Precipitaciones Rachas de viento máximas Velocidades máximas media en intervalos de 10 minutos

Datos horarios

Fecha y hora oficial Temperatura (ºC) Velocidad del viento (km/h) Dirección del viento Racha (km/h) Dirección de racha Precipitación (mm) Presión (hPa) Tendencia (hPa) Humedad (%)
2018-08-18 23:00:00 22.5 18 Nordeste 32 Este 0 -- -- 70
2018-08-18 22:00:00 22.5 20 Nordeste 36 Nordeste 0 -- -- 72
2018-08-18 21:00:00 22.8 16 Nordeste 30 Nordeste 0 -- -- 72
2018-08-18 20:00:00 23.2 15 Nordeste 31 Nordeste 0 -- -- 66
2018-08-18 19:00:00 23.6 16 Nordeste 32 Nordeste 0 -- -- 70
2018-08-18 18:00:00 24.2 18 Nordeste 37 Nordeste 0 -- -- 66
2018-08-18 17:00:00 24.1 26 Norte 36 Norte 0 -- -- 64
2018-08-18 16:00:00 23.8 23 Nordeste 36 Norte 0 -- -- 60
2018-08-18 15:00:00 24 22 Norte 37 Norte 0 -- -- 63
2018-08-18 14:00:00 24.1 17 Nordeste 36 Nordeste 0 -- -- 61
2018-08-18 13:00:00 24.1 18 Nordeste 42 Nordeste 0 -- -- 62
2018-08-18 12:00:00 22.7 19 Nordeste 32 Nordeste 0 -- -- 69
2018-08-18 11:00:00 22.6 16 Nordeste 34 Nordeste 0 -- -- 70
2018-08-18 10:00:00 22.5 14 Nordeste 31 Nordeste 0 -- -- 69
2018-08-18 09:00:00 22.5 14 Nordeste 31 Nordeste 0 -- -- 70
2018-08-18 08:00:00 22 18 Nordeste 31 Nordeste 0 -- -- 71
2018-08-18 07:00:00 22.3 16 Nordeste 30 Nordeste 0 -- -- 69
2018-08-18 06:00:00 21.9 18 Nordeste 36 Nordeste 0 -- -- 73
2018-08-18 05:00:00 21.6 24 Nordeste 38 Norte 0 -- -- 79
2018-08-18 04:00:00 22.6 20 Nordeste 36 Nordeste 0 -- -- 69
2018-08-18 03:00:00 22.5 18 Nordeste 32 Nordeste 0 -- -- 75
2018-08-18 02:00:00 22.6 17 Nordeste 35 Nordeste 0 -- -- 69
2018-08-18 01:00:00 22.9 14 Nordeste 36 Nordeste 0 -- -- 67
2018-08-18 00:00:00 22.6 20 Nordeste 37 Nordeste 0 -- -- 69
2018-08-17 23:00:00 22.4 19 Nordeste 33 Nordeste 0 -- -- 76
2018-08-17 22:00:00 22.5 20 Nordeste 31 Nordeste 0 -- -- 76
2018-08-17 21:00:00 22.7 17 Nordeste 33 Nordeste 0 -- -- 76
2018-08-17 20:00:00 23 22 Nordeste 39 Nordeste 0 -- -- 76
2018-08-17 19:00:00 23.4 21 Nordeste 43 Nordeste 0 -- -- 76
2018-08-17 18:00:00 23.1 26 Nordeste 42 Norte 0 -- -- 77
2018-08-17 17:00:00 23.7 25 Nordeste 40 Norte 0 -- -- 73
2018-08-17 16:00:00 23.8 26 Norte 41 Norte 0 -- -- 72
2018-08-17 15:00:00 24 22 Nordeste 40 Norte 0 -- -- 69
2018-08-17 14:00:00 25.3 22 Nordeste 39 Nordeste 0 -- -- 58
2018-08-17 13:00:00 24.5 23 Nordeste 42 Norte 0 -- -- 57
2018-08-17 12:00:00 23.7 20 Nordeste 39 Nordeste 0 -- -- 65
2018-08-17 11:00:00 23.3 16 Nordeste 30 Nordeste 0 -- -- 73
2018-08-17 10:00:00 23.1 16 Nordeste 31 Nordeste 0 -- -- 68
2018-08-17 09:00:00 22.8 17 Nordeste 29 Nordeste 0 -- -- 68
2018-08-17 08:00:00 22.6 15 Nordeste 34 Nordeste 0 -- -- 65
2018-08-17 07:00:00 22.5 17 Este 35 Nordeste 0 -- -- 67
2018-08-17 06:00:00 22.6 14 Nordeste 37 Nordeste 0 -- -- 67
2018-08-17 05:00:00 22.6 18 Nordeste 35 Nordeste 0 -- -- 67
2018-08-17 04:00:00 22.5 16 Nordeste 33 Nordeste 0 -- -- 71
2018-08-17 03:00:00 22.3 14 Este 30 Este 0 -- -- 70
2018-08-17 02:00:00 21.9 17 Nordeste 40 Nordeste 0 -- -- 76
2018-08-17 01:00:00 22.5 19 Nordeste 35 Nordeste 0 -- -- 71
2018-08-17 00:00:00 22.3 23 Nordeste 35 Este 0 -- -- 76
2018-08-16 23:00:00 22.9 16 Nordeste 38 Nordeste 0 -- -- 66
2018-08-16 22:00:00 22.8 19 Nordeste 38 Nordeste 0 -- -- 65
2018-08-16 21:00:00 22.9 21 Nordeste 40 Nordeste 0 -- -- 65
2018-08-16 20:00:00 23.2 26 Nordeste 44 Nordeste 0 -- -- 63
2018-08-16 19:00:00 23.6 24 Nordeste 40 Nordeste 0 -- -- 64
2018-08-16 18:00:00 23.5 28 Nordeste 42 Nordeste 0 -- -- 70
2018-08-16 17:00:00 24.6 25 Nordeste 49 Nordeste 0 -- -- 61
2018-08-16 16:00:00 24.9 23 Nordeste 45 Nordeste 0 -- -- 62
2018-08-16 15:00:00 24.5 20 Nordeste 43 Nordeste 0 -- -- 66
2018-08-16 14:00:00 24.9 23 Nordeste 43 Nordeste 0 -- -- 63
2018-08-16 13:00:00 24.4 23 Nordeste 43 Nordeste 0 -- -- 64
2018-08-16 12:00:00 23.4 25 Nordeste 41 Nordeste 0 -- -- 70
2018-08-16 11:00:00 22.9 19 Nordeste 39 Nordeste 0 -- -- 69
2018-08-16 10:00:00 22.2 21 Nordeste 40 Nordeste 0 -- -- 74
2018-08-16 09:00:00 22.1 20 Nordeste 40 Este 0 -- -- 74
2018-08-16 08:00:00 21.9 21 Nordeste 38 Nordeste 0 -- -- 73
2018-08-16 07:00:00 21.7 23 Nordeste 38 Nordeste 0 -- -- 73
2018-08-16 06:00:00 21.7 20 Nordeste 37 Nordeste 0 -- -- 76
2018-08-16 05:00:00 21.8 23 Nordeste 45 Nordeste 0 -- -- 79
2018-08-16 04:00:00 22.1 24 Nordeste 45 Nordeste 0 -- -- 76
2018-08-16 03:00:00 22.1 20 Nordeste 40 Norte 0 -- -- 75
2018-08-16 02:00:00 22.2 22 Nordeste 38 Nordeste 0 -- -- 76
2018-08-16 01:00:00 22.3 24 Nordeste 45 Nordeste 0 -- -- 74
2018-08-16 00:00:00 22.4 24 Nordeste 43 Norte 0 -- -- 74
2018-08-15 23:00:00 22.8 22 Nordeste 41 Nordeste 0 -- -- 75
2018-08-15 22:00:00 22.6 26 Nordeste 46 Nordeste 0 -- -- 74
2018-08-15 21:00:00 22.8 29 Norte 45 Nordeste 0 -- -- 73
2018-08-15 20:00:00 23.4 25 Nordeste 44 Nordeste 0 -- -- 72
2018-08-15 19:00:00 24 34 Nordeste 52 Norte 0 -- -- 68
2018-08-15 18:00:00 25.2 29 Norte 44 Norte 0 -- -- 66
2018-08-15 17:00:00 26.8 25 Norte 49 Nordeste 0 -- -- 60
2018-08-15 16:00:00 26.7 25 Norte 45 Nordeste 0 -- -- 60
2018-08-15 15:00:00 26.7 25 Norte 59 Nordeste 0 -- -- 62
2018-08-15 14:00:00 25.7 33 Norte 54 Norte 0 -- -- 66
2018-08-15 13:00:00 25 33 Norte 49 Norte 0 -- -- 68
2018-08-15 12:00:00 24.4 29 Norte 42 Norte 0 -- -- 72
2018-08-15 11:00:00 24.4 23 Norte 36 Norte 0 -- -- 71
2018-08-15 10:00:00 24.4 17 Norte 33 Norte 0 -- -- 70
2018-08-15 09:00:00 24.5 13 Sur 28 Nordeste 0 -- -- 66
2018-08-15 08:00:00 23.5 8 Norte 27 Este 0 -- -- 66
2018-08-15 07:00:00 23.4 8 Este 34 Nordeste 0 -- -- 65
2018-08-15 06:00:00 22.6 25 Norte 51 Norte 0 -- -- 75
2018-08-15 05:00:00 22.9 27 Norte 44 Norte 0 -- -- 75
2018-08-15 04:00:00 25.7 17 Nordeste 32 Nordeste 0 -- -- 46
2018-08-15 03:00:00 26 14 Nordeste 37 Norte 0 -- -- 47
2018-08-15 02:00:00 27.4 22 Nordeste 35 Nordeste 0 -- -- 40
2018-08-15 01:00:00 27.5 21 Nordeste 40 Nordeste 0 -- -- 39
2018-08-15 00:00:00 26.7 19 Nordeste 35 Nordeste 0 -- -- 42
2018-08-14 23:00:00 26.7 13 Nordeste 31 Nordeste 0 -- -- 46
2018-08-14 22:00:00 25.3 14 Nordeste 33 Nordeste 0 -- -- 61
2018-08-14 21:00:00 24.3 17 Norte 35 Norte 0 -- -- 75
2018-08-14 20:00:00 25.7 14 Este 35 Este 0 -- -- 70
2018-08-14 19:00:00 27.3 8 Norte 37 Nordeste 0 -- -- 66
2018-08-14 18:00:00 26.4 22 Nordeste 43 Nordeste 0 -- -- 70
2018-08-14 17:00:00 26.4 28 Nordeste 46 Este 0 -- -- 71
2018-08-14 16:00:00 28.1 17 Este 35 Nordeste 0 -- -- 65
2018-08-14 15:00:00 28.7 15 Este 37 Nordeste 0 -- -- 63
2018-08-14 14:00:00 29.4 15 Nordeste 36 Nordeste 0 -- -- 61
2018-08-14 13:00:00 28.7 17 Nordeste 35 Nordeste 0 -- -- 63
2018-08-14 12:00:00 28.9 9 Sudeste 24 Sudeste 0 -- -- 63
2018-08-14 11:00:00 27.4 14 Sudeste 34 Este 0 -- -- 66
2018-08-14 10:00:00 27.6 13 Sur 29 Sudeste 0 -- -- 65
2018-08-14 09:00:00 25.2 11 Sudeste 25 Sudeste 0 -- -- 74
2018-08-14 08:00:00 24.6 18 Sudeste 27 Sudeste 0 -- -- 75
2018-08-14 07:00:00 25.2 9 Sur 26 Sudeste 0 -- -- 73
2018-08-14 06:00:00 25.7 10 Este 19 Este 0 -- -- 69
2018-08-14 05:00:00 24.7 8 Sur 15 Sudoeste 0 -- -- 75
2018-08-14 04:00:00 27.3 9 Oeste 44 Nordeste 0 -- -- 61
2018-08-14 03:00:00 29.7 22 Nordeste 40 Nordeste 0 -- -- 51
2018-08-14 02:00:00 30.2 23 Nordeste 39 Nordeste 0 -- -- 49
2018-08-14 01:00:00 28.6 15 Este 36 Nordeste 0 -- -- 56
2018-08-14 00:00:00 26.3 9 Este 38 Este 0 -- -- 66
2018-08-13 23:00:00 29.2 20 Nordeste 37 Nordeste 0 -- -- 54
2018-08-13 22:00:00 26.5 23 Nordeste 37 Nordeste 0 -- -- 65
2018-08-13 21:00:00 25.5 13 Este 53 Este 0 -- -- 72
2018-08-13 20:00:00 24.1 17 Este 40 Nordeste 0 -- -- 80
2018-08-13 19:00:00 24.3 17 Norte 30 Norte 0 -- -- 82
2018-08-13 18:00:00 24.7 10 Nordeste 28 Nordeste 0 -- -- 81
2018-08-13 17:00:00 25.6 9 Nordeste 20 Nordeste 0 -- -- 79
2018-08-13 16:00:00 26.4 3 Sudoeste 11 Noroeste 0 -- -- 71
2018-08-13 15:00:00 26.1 5 Sudeste 25 Sur 0 -- -- 72
2018-08-13 14:00:00 26 20 Sur 42 Este 0 -- -- 73
2018-08-13 13:00:00 28.1 17 Este 37 Nordeste 0 -- -- 64
2018-08-13 12:00:00 26.5 8 Sur 12 Sur 0 -- -- 70
2018-08-13 11:00:00 25.7 3 Sur 12 Sudeste 0 -- -- 72
2018-08-13 10:00:00 24.7 6 Noroeste 18 Norte 0 -- -- 75
2018-08-13 09:00:00 23.9 9 Sudoeste 25 Sur 0 -- -- 77
2018-08-13 08:00:00 24.3 13 Sudeste 44 Norte 0 -- -- 74
2018-08-13 07:00:00 26.5 19 Nordeste 42 Este 0 -- -- 61
2018-08-13 06:00:00 26.3 16 Este 42 Nordeste 0 -- -- 60
2018-08-13 05:00:00 26.8 18 Nordeste 41 Este 0 -- -- 60
2018-08-13 04:00:00 24.9 27 Nordeste 44 Nordeste 0 -- -- 70
2018-08-13 03:00:00 25 7 Sudoeste 22 Nordeste 0 -- -- 71
2018-08-13 02:00:00 27.2 9 Nordeste 28 Norte 0 -- -- 57
2018-08-13 01:00:00 25.8 10 Este 26 Este 0 -- -- 65
2018-08-13 00:00:00 28.5 8 Nordeste 27 Nordeste 0 -- -- 50
2018-08-12 23:00:00 29.6 16 Nordeste 39 Este 0 -- -- 46
2018-08-12 22:00:00 27.3 16 Este 51 Este 0 -- -- 57
2018-08-12 21:00:00 28.6 27 Nordeste 49 Nordeste 0 -- -- 53
2018-08-12 20:00:00 27.6 28 Nordeste 51 Nordeste 0 -- -- 60
2018-08-12 19:00:00 27.3 27 Nordeste 50 Nordeste 0 -- -- 62
2018-08-12 18:00:00 26.4 18 Este 55 Este 0 -- -- 68
2018-08-12 17:00:00 25.4 28 Nordeste 58 Nordeste 0 -- -- 72
2018-08-12 16:00:00 25 33 Nordeste 62 Nordeste 0 -- -- 75
2018-08-12 15:00:00 24.8 40 Nordeste 65 Nordeste 0 -- -- 75
2018-08-12 14:00:00 24.6 28 Nordeste 52 Nordeste 0 -- -- 75
2018-08-12 13:00:00 23.6 21 Nordeste 43 Nordeste 0 -- -- 79
2018-08-12 12:00:00 23.1 19 Nordeste 40 Nordeste 0 -- -- 80
2018-08-12 11:00:00 22.6 19 Nordeste 37 Nordeste 0 -- -- 81
2018-08-12 10:00:00 22.4 17 Nordeste 37 Norte 0 -- -- 82
2018-08-12 09:00:00 22.2 19 Nordeste 38 Nordeste 0 -- -- 82
2018-08-12 08:00:00 22 26 Nordeste 37 Nordeste 0 -- -- 83
2018-08-12 07:00:00 22 20 Nordeste 39 Nordeste 0 -- -- 81
2018-08-12 06:00:00 21.9 25 Nordeste 41 Nordeste 0 -- -- 80
2018-08-12 05:00:00 21.9 24 Nordeste 47 Norte 0 -- -- 81
2018-08-12 04:00:00 21.9 25 Nordeste 40 Norte 0 -- -- 81
2018-08-12 03:00:00 22 24 Nordeste 53 Nordeste 0 -- -- 80
2018-08-12 02:00:00 22 24 Nordeste 39 Norte 0 -- -- 79
2018-08-12 01:00:00 22.2 21 Nordeste 41 Nordeste 0 -- -- 79
2018-08-12 00:00:00 22.3 22 Nordeste 41 Nordeste 0 -- -- 77
2018-08-11 23:00:00 22.2 23 Nordeste 43 Nordeste 0 -- -- 77
2018-08-11 22:00:00 22.3 22 Nordeste 38 Nordeste 0 -- -- 76
2018-08-11 21:00:00 22.4 19 Nordeste 36 Nordeste 0 -- -- 75
2018-08-11 20:00:00 22.8 21 Nordeste 39 Nordeste 0 -- -- 73
2018-08-11 19:00:00 23.2 23 Norte 40 Nordeste 0 -- -- 71
2018-08-11 18:00:00 23.6 20 Nordeste 41 Norte 0 -- -- 69
2018-08-11 17:00:00 23.5 23 Nordeste 39 Norte 0 -- -- 70
2018-08-11 16:00:00 23.6 25 Nordeste 38 Norte 0 -- -- 66
2018-08-11 15:00:00 23.9 22 Nordeste 42 Norte 0 -- -- 66
2018-08-11 14:00:00 23.3 25 Nordeste 41 Norte 0 -- -- 68
2018-08-11 13:00:00 23.3 21 Nordeste 47 Nordeste 0 -- -- 67
2018-08-11 12:00:00 22.7 21 Nordeste 39 Nordeste 0 -- -- 68
2018-08-11 11:00:00 22.2 21 Nordeste 36 Norte 0 -- -- 70
2018-08-11 10:00:00 22.2 17 Nordeste 33 Norte 0 -- -- 70
2018-08-11 09:00:00 21.7 19 Nordeste 32 Nordeste 0 -- -- 72
2018-08-11 08:00:00 21.5 18 Nordeste 31 Nordeste 0 -- -- 74
2018-08-11 07:00:00 21.4 21 Nordeste 34 Nordeste 0 -- -- 74
2018-08-11 06:00:00 21.5 17 Nordeste 35 Nordeste 0 -- -- 74
2018-08-11 05:00:00 21.3 19 Nordeste 39 Nordeste 0 -- -- 74
2018-08-11 04:00:00 21.5 18 Nordeste 37 Nordeste 0 -- -- 73
2018-08-11 03:00:00 21.5 18 Nordeste 34 Nordeste 0 -- -- 73
2018-08-11 02:00:00 21.6 19 Nordeste 34 Nordeste 0 -- -- 71
2018-08-11 01:00:00 21.6 20 Nordeste 41 Nordeste 0 -- -- 73
2018-08-11 00:00:00 21.9 19 Nordeste 35 Nordeste 0 -- -- 73
2018-08-10 23:00:00 22 22 Nordeste 37 Nordeste 0 -- -- 71
2018-08-10 22:00:00 22.2 19 Nordeste 33 Nordeste 0 -- -- 71
2018-08-10 21:00:00 22.3 22 Nordeste 41 Este 0 -- -- 69
2018-08-10 20:00:00 22.9 19 Nordeste 43 Nordeste 0 -- -- 66
2018-08-10 19:00:00 23.7 22 Nordeste 41 Nordeste 0 -- -- 61
2018-08-10 18:00:00 24.1 19 Nordeste 42 Este 0 -- -- 59
2018-08-10 17:00:00 24.1 24 Nordeste 43 Nordeste 0 -- -- 59
2018-08-10 16:00:00 24 23 Nordeste 45 Nordeste 0 -- -- 60
2018-08-10 15:00:00 24.5 22 Nordeste 48 Norte 0 -- -- 60
2018-08-10 14:00:00 24.2 24 Nordeste 44 Nordeste 0 -- -- 57
2018-08-10 13:00:00 23.5 24 Nordeste 40 Nordeste 0 -- -- 62
2018-08-10 12:00:00 23.5 22 Nordeste 39 Nordeste 0 -- -- 62
2018-08-10 11:00:00 22.9 18 Nordeste 41 Este 0 -- -- 67
2018-08-10 10:00:00 21.6 23 Nordeste 40 Nordeste 0 -- -- 74
2018-08-10 09:00:00 21.5 19 Nordeste 32 Nordeste 0 -- -- 79
2018-08-10 08:00:00 21.7 19 Nordeste 32 Nordeste 0 -- -- 76
2018-08-10 07:00:00 21.2 19 Nordeste 37 Nordeste 0 -- -- 81
2018-08-10 06:00:00 21.6 19 Nordeste 33 Nordeste 0 -- -- 81
2018-08-10 05:00:00 21.8 18 Nordeste 33 Nordeste 0 -- -- 79
2018-08-10 04:00:00 22 18 Nordeste 35 Nordeste 0 -- -- 78
2018-08-10 03:00:00 22.2 16 Nordeste 36 Nordeste 0 -- -- 75
2018-08-10 02:00:00 22.4 21 Nordeste 40 Nordeste 0 -- -- 75
2018-08-10 01:00:00 22.5 22 Nordeste 40 Nordeste 0 -- -- 74
2018-08-10 00:00:00 23 15 Nordeste 33 Nordeste 0 -- -- 67
2018-08-09 23:00:00 22.9 18 Nordeste 41 Nordeste 0 -- -- 74
2018-08-09 22:00:00 22.8 24 Nordeste 44 Nordeste 0 -- -- 75
2018-08-09 21:00:00 23.2 24 Nordeste 43 Nordeste 0 -- -- 72
2018-08-09 20:00:00 23.9 20 Nordeste 45 Nordeste 0 -- -- 64
2018-08-09 19:00:00 24.2 27 Nordeste 48 Nordeste 0 -- -- 62
2018-08-09 18:00:00 24.5 22 Nordeste 51 Nordeste 0 -- -- 66
2018-08-09 17:00:00 25.2 28 Nordeste 54 Nordeste 0 -- -- 59
2018-08-09 16:00:00 25.5 32 Nordeste 53 Nordeste 0 -- -- 56
2018-08-09 15:00:00 25.6 28 Nordeste 59 Nordeste 0 -- -- 59
2018-08-09 14:00:00 25 34 Nordeste 58 Nordeste 0 -- -- 63
2018-08-09 13:00:00 25.2 31 Nordeste 57 Nordeste 0 -- -- 57
2018-08-09 12:00:00 24.4 31 Nordeste 59 Nordeste 0 -- -- 64
2018-08-09 11:00:00 23.9 31 Nordeste 50 Nordeste 0 -- -- 69
2018-08-09 10:00:00 23.6 25 Nordeste 45 Nordeste 0 -- -- 67
2018-08-09 09:00:00 22.7 25 Nordeste 43 Nordeste 0 -- -- 67
2018-08-09 08:00:00 22.2 21 Nordeste 44 Nordeste 0 -- -- 69
2018-08-09 07:00:00 22 22 Nordeste 43 Nordeste 0 -- -- 69
2018-08-09 06:00:00 22 21 Nordeste 38 Nordeste 0 -- -- 71
2018-08-09 05:00:00 22 18 Nordeste 36 Nordeste 0 -- -- 72
2018-08-09 04:00:00 22.2 18 Nordeste 46 Nordeste 0 -- -- 72
2018-08-09 03:00:00 22.2 21 Nordeste 42 Nordeste 0 -- -- 70
2018-08-09 02:00:00 22.3 24 Nordeste 50 Nordeste 0 -- -- 72
2018-08-09 01:00:00 22.3 25 Nordeste 48 Nordeste 0 -- -- 73
2018-08-09 00:00:00 22.5 29 Nordeste 48 Nordeste 0 -- -- 73
2018-08-08 23:00:00 22.7 28 Nordeste 47 Norte 0 -- -- 70
2018-08-08 22:00:00 22.7 24 Nordeste 43 Nordeste 0 -- -- 73
2018-08-08 21:00:00 22.8 21 Nordeste 42 Norte 0 -- -- 71
2018-08-08 20:00:00 23.4 21 Nordeste 45 Nordeste 0 -- -- 68
2018-08-08 19:00:00 24 24 Nordeste 51 Norte 0 -- -- 69
2018-08-08 18:00:00 25 26 Norte 55 Nordeste 0 -- -- 63
2018-08-08 17:00:00 25.4 30 Nordeste 59 Norte 0 -- -- 63
2018-08-08 16:00:00 25.5 30 Norte 59 Norte 0 -- -- 62
2018-08-08 15:00:00 24.9 33 Nordeste 52 Nordeste 0 -- -- 65
2018-08-08 14:00:00 24.8 30 Norte 50 Nordeste 0 -- -- 63
2018-08-08 13:00:00 24.8 22 Nordeste 49 Nordeste 0 -- -- 65
2018-08-08 12:00:00 24.2 23 Nordeste 45 Nordeste 0 -- -- 67
2018-08-08 11:00:00 23.7 24 Norte 49 Nordeste 0 -- -- 68
2018-08-08 10:00:00 23 27 Nordeste 52 Nordeste 0 -- -- 73
2018-08-08 09:00:00 22.6 30 Nordeste 46 Nordeste 0 -- -- 74
2018-08-08 08:00:00 22.1 29 Nordeste 50 Nordeste 0 -- -- 75
2018-08-08 07:00:00 22.1 31 Nordeste 53 Nordeste 0 -- -- 75
2018-08-08 06:00:00 22 33 Nordeste 48 Nordeste 0 -- -- 75
2018-08-08 05:00:00 22.1 31 Nordeste 48 Nordeste 0 -- -- 76
2018-08-08 04:00:00 22 27 Nordeste 42 Norte 0 -- -- 76
2018-08-08 03:00:00 22.2 27 Norte 45 Nordeste 0 -- -- 77
2018-08-08 02:00:00 22.2 31 Norte 44 Nordeste 0 -- -- 76
2018-08-08 01:00:00 22.4 30 Norte 45 Norte 0 -- -- 76
2018-08-08 00:00:00 22.5 29 Norte 45 Nordeste 0 -- -- 75
2018-08-07 23:00:00 22.7 30 Norte 43 Norte 0 -- -- 76
2018-08-07 22:00:00 23.1 21 Nordeste 43 Nordeste 0 -- -- 76
2018-08-07 21:00:00 23.2 27 Nordeste 42 Nordeste 0 -- -- 76
2018-08-07 20:00:00 23.4 27 Nordeste 44 Nordeste 0 -- -- 76
2018-08-07 19:00:00 24.2 27 Nordeste 55 Nordeste 0 -- -- 72
2018-08-07 18:00:00 24.8 28 Nordeste 51 Nordeste 0 -- -- 71
2018-08-07 17:00:00 25 32 Norte 51 Norte 0 -- -- 72
2018-08-07 16:00:00 25.1 36 Norte 50 Norte 0 -- -- 71
2018-08-07 15:00:00 24.8 37 Norte 63 Norte 0 -- -- 73
2018-08-07 14:00:00 24.9 33 Norte 49 Norte 0 -- -- 73
2018-08-07 13:00:00 25 29 Norte 49 Nordeste 0 -- -- 71
2018-08-07 12:00:00 24.7 28 Nordeste 46 Nordeste 0 -- -- 72
2018-08-07 11:00:00 24.3 27 Nordeste 44 Nordeste 0 -- -- 74
2018-08-07 10:00:00 23.7 27 Norte 39 Norte 0 -- -- 76
2018-08-07 09:00:00 23.2 23 Norte 39 Norte 0 -- -- 79
2018-08-07 08:00:00 23 24 Norte 45 Norte 0 -- -- 80
2018-08-07 07:00:00 23 27 Norte 44 Norte 0 -- -- 80
2018-08-07 06:00:00 23.1 30 Norte 48 Norte 0 -- -- 78
2018-08-07 05:00:00 23 38 Norte 52 Norte 0 -- -- 79
2018-08-07 04:00:00 23.3 19 Nordeste 37 Nordeste 0 -- -- 75
2018-08-07 03:00:00 23.5 16 Nordeste 34 Este 0 -- -- 75
2018-08-07 02:00:00 23.3 20 Nordeste 39 Nordeste 0 -- -- 79
2018-08-07 01:00:00 23.5 14 Norte 36 Nordeste 0 -- -- 78
2018-08-07 00:00:00 23.5 14 Norte 35 Norte 0 -- -- 79
2018-08-06 23:00:00 23.8 20 Norte 38 Nordeste 0 -- -- 77
2018-08-06 22:00:00 24.1 17 Norte 44 Nordeste 0 -- -- 76
2018-08-06 21:00:00 24.4 19 Norte 42 Nordeste 0 -- -- 76
2018-08-06 20:00:00 25.2 20 Nordeste 47 Nordeste 0 -- -- 74
2018-08-06 19:00:00 26.5 22 Nordeste 45 Nordeste 0 -- -- 69
2018-08-06 18:00:00 26.9 26 Este 49 Nordeste 0 -- -- 67
2018-08-06 17:00:00 28 20 Nordeste 46 Nordeste 0 -- -- 63
2018-08-06 16:00:00 26.9 26 Norte 57 Norte 0 -- -- 69
2018-08-06 15:00:00 24.2 37 Norte 58 Norte 0 -- -- 83
2018-08-06 14:00:00 24.3 37 Norte 50 Norte 0 -- -- 82
2018-08-06 13:00:00 24.1 37 Norte 53 Norte 0 -- -- 82
2018-08-06 12:00:00 24.2 32 Norte 40 Norte 0 -- -- 81
2018-08-06 11:00:00 25 19 Norte 37 Norte 0 -- -- 76
2018-08-06 10:00:00 23.6 19 Nordeste 33 Nordeste 0 -- -- 82
2018-08-06 09:00:00 23.1 18 Nordeste 30 Nordeste 0 -- -- 83
2018-08-06 08:00:00 22.9 12 Nordeste 27 Norte 0 -- -- 84
2018-08-06 07:00:00 22.7 11 Nordeste 33 Nordeste 0 -- -- 84
2018-08-06 06:00:00 22.6 20 Nordeste 33 Nordeste 0 -- -- 86
2018-08-06 05:00:00 22.5 20 Nordeste 38 Nordeste 0 -- -- 86
2018-08-06 04:00:00 22.7 23 Nordeste 36 Norte 0 -- -- 84
2018-08-06 03:00:00 22.8 22 Nordeste 35 Nordeste 0 -- -- 84
2018-08-06 02:00:00 22.9 22 Nordeste 37 Nordeste 0 -- -- 81
2018-08-06 01:00:00 22.9 22 Nordeste 37 Nordeste 0 -- -- 81
2018-08-06 00:00:00 22.9 21 Nordeste 34 Nordeste 0 -- -- 82
2018-08-05 23:00:00 23.2 15 Nordeste 32 Nordeste 0 -- -- 80
2018-08-05 22:00:00 23.2 16 Nordeste 33 Norte 0 -- -- 79
2018-08-05 21:00:00 23.3 20 Norte 31 Norte 0 -- -- 80
2018-08-05 20:00:00 23.9 19 Norte 33 Norte 0 -- -- 75
2018-08-05 19:00:00 24.4 24 Norte 34 Norte 0 -- -- 72
2018-08-05 18:00:00 24.8 26 Norte 41 Norte 0 -- -- 73
2018-08-05 17:00:00 24.8 26 Norte 44 Norte 0 -- -- 72
2018-08-05 16:00:00 24.8 29 Norte 51 Norte 0 -- -- 73
2018-08-05 15:00:00 24.7 28 Norte 41 Norte 0 -- -- 72
2018-08-05 14:00:00 25 28 Norte 44 Norte 0 -- -- 70
2018-08-05 13:00:00 24.5 28 Norte 42 Norte 0 -- -- 72
2018-08-05 12:00:00 24.2 26 Norte 43 Norte 0 -- -- 74
2018-08-05 11:00:00 23.9 21 Norte 33 Norte 0 -- -- 74
2018-08-05 10:00:00 23.3 17 Nordeste 32 Norte 0 -- -- 77
2018-08-05 09:00:00 22.8 18 Norte 34 Norte 0 -- -- 76
2018-08-05 08:00:00 22.8 15 Nordeste 27 Nordeste 0 -- -- 77
2018-08-05 07:00:00 22.6 13 Nordeste 27 Nordeste 0 -- -- 80
2018-08-05 06:00:00 22.6 17 Nordeste 28 Norte 0 -- -- 80
2018-08-05 05:00:00 22.6 15 Nordeste 37 Norte 0 -- -- 80
2018-08-05 04:00:00 22.6 22 Norte 35 Nordeste 0 -- -- 81
2018-08-05 03:00:00 22.9 18 Nordeste 32 Nordeste 0 -- -- 80
2018-08-05 02:00:00 23 17 Nordeste 37 Nordeste 0 -- -- 78
2018-08-05 01:00:00 23 23 Nordeste 44 Nordeste 0 -- -- 78
2018-08-05 00:00:00 23.1 22 Nordeste 44 Nordeste 0 -- -- 77
2018-08-04 23:00:00 23.2 22 Nordeste 38 Nordeste 0 -- -- 76
2018-08-04 22:00:00 23.3 18 Nordeste 35 Nordeste 0 -- -- 76
2018-08-04 21:00:00 23.2 22 Nordeste 36 Nordeste 0 -- -- 75
2018-08-04 20:00:00 23.3 22 Nordeste 33 Nordeste 0 -- -- 74
2018-08-04 19:00:00 23.3 20 Norte 32 Norte 0 -- -- 75
2018-08-04 18:00:00 23.9 17 Nordeste 36 Norte 0 -- -- 71
2018-08-04 17:00:00 23.9 21 Norte 36 Nordeste 0 -- -- 72
2018-08-04 16:00:00 24.5 21 Norte 36 Norte 0 -- -- 70
2018-08-04 15:00:00 24.7 23 Norte 35 Nordeste 0 -- -- 66
2018-08-04 14:00:00 24.5 22 Norte 35 Norte 0 -- -- 69
2018-08-04 13:00:00 24 20 Norte 35 Norte 0 -- -- 67
2018-08-04 12:00:00 23.6 21 Norte 39 Norte 0 -- -- 69
2018-08-04 11:00:00 23 17 Norte 27 Norte 0 -- -- 72
2018-08-04 10:00:00 22.9 17 Norte 27 Norte 0 -- -- 71
2018-08-04 09:00:00 22.8 10 Nordeste 17 Nordeste 0 -- -- 69
2018-08-04 08:00:00 22.1 9 Nordeste 22 Nordeste 0 -- -- 70
2018-08-04 07:00:00 22.3 10 Nordeste 22 Este 0 -- -- 71
2018-08-04 06:00:00 22.1 17 Nordeste 27 Nordeste 0 -- -- 70
2018-08-04 05:00:00 22.2 13 Nordeste 22 Nordeste 0 -- -- 71
2018-08-04 04:00:00 22.2 12 Nordeste 21 Nordeste 0 -- -- 72
2018-08-04 03:00:00 22.3 12 Nordeste 23 Nordeste 0 -- -- 72
2018-08-04 02:00:00 22.4 13 Nordeste 24 Nordeste 0 -- -- 70
2018-08-04 01:00:00 22.3 12 Nordeste 23 Nordeste 0 -- -- 71
2018-08-04 00:00:00 22.9 12 Nordeste 23 Norte 0 -- -- 67
2018-08-03 23:00:00 22.8 9 Nordeste 28 Este 0 -- -- 68
2018-08-03 22:00:00 22.9 12 Nordeste 26 Nordeste 0 -- -- 67
2018-08-03 21:00:00 23.2 15 Nordeste 24 Norte 0 -- -- 67
2018-08-03 20:00:00 24.2 15 Nordeste 29 Nordeste 0 -- -- 61
2018-08-03 19:00:00 24.6 17 Norte 37 Norte 0 -- -- 61
2018-08-03 18:00:00 24.4 21 Norte 31 Norte 0 -- -- 65
2018-08-03 17:00:00 24.6 23 Norte 29 Norte 0 -- -- 65
2018-08-03 16:00:00 24.9 21 Norte 28 Norte 0 -- -- 64
2018-08-03 15:00:00 24.7 20 Norte 29 Noroeste 0 -- -- 65
2018-08-03 14:00:00 24.3 22 Norte 27 Norte 0 -- -- 63
2018-08-03 13:00:00 24.4 15 Norte 20 Noroeste 0 -- -- 66
2018-08-03 12:00:00 24 14 Noroeste 31 Norte 0 -- -- 64
2018-08-03 11:00:00 24.5 14 Norte 24 Nordeste 0 -- -- 58
2018-08-03 10:00:00 23.9 13 Este 24 Este 0 -- -- 59
2018-08-03 09:00:00 22.7 9 Nordeste 20 Este 0 -- -- 63
2018-08-03 08:00:00 22.4 9 Este 17 Norte 0 -- -- 64
2018-08-03 07:00:00 22.5 7 Este 24 Sudeste 0 -- -- 63
2018-08-03 06:00:00 22.3 8 Sudeste 21 Este 0 -- -- 62
2018-08-03 05:00:00 22.4 9 Este 17 Este 0 -- -- 62
2018-08-03 04:00:00 22.4 8 Este 27 Sudeste 0 -- -- 64
2018-08-03 03:00:00 22.1 7 Nordeste 15 Este 0 -- -- 69
2018-08-03 02:00:00 22.4 5 Este 19 Este 0 -- -- 67
2018-08-03 01:00:00 22.3 9 Este 21 Este 0 -- -- 67
2018-08-03 00:00:00 22.5 9 Este 20 Este 0 -- -- 65
2018-08-02 23:00:00 22.8 8 Este 24 Este 0 -- -- 63
2018-08-02 22:00:00 23.1 11 Nordeste 20 Nordeste 0 -- -- 61
2018-08-02 21:00:00 23.6 11 Nordeste 21 Norte 0 -- -- 59
2018-08-02 20:00:00 24.7 13 Norte 25 Norte 0 -- -- 56
2018-08-02 19:00:00 24.7 11 Nordeste 27 Norte 0 -- -- 56
2018-08-02 18:00:00 25.3 12 Nordeste 30 Norte 0 -- -- 54
2018-08-02 17:00:00 24 21 Norte 32 Norte 0 -- -- 65
2018-08-02 16:00:00 24.6 16 Norte 43 Norte 0 -- -- 56
2018-08-02 15:00:00 24.2 24 Norte 37 Norte 0 -- -- 60
2018-08-02 14:00:00 24.1 18 Norte 30 Sudeste 0 -- -- 62
2018-08-02 13:00:00 23.9 17 Norte 28 Norte 0 -- -- 60
2018-08-02 12:00:00 24.1 11 Nordeste 24 Norte 0 -- -- 60
2018-08-02 11:00:00 23.3 8 Este 24 Este 0 -- -- 63
2018-08-02 10:00:00 22.3 13 Nordeste 21 Nordeste 0 -- -- 63
2018-08-02 09:00:00 22.1 9 Nordeste 23 Norte 0 -- -- 67
2018-08-02 08:00:00 21.9 11 Nordeste 24 Este 0 -- -- 70
2018-08-02 07:00:00 22 11 Nordeste 23 Nordeste 0 -- -- 70
2018-08-02 06:00:00 22 9 Este 21 Este 0 -- -- 67
2018-08-02 05:00:00 21.9 9 Nordeste 28 Este 0 -- -- 70
2018-08-02 04:00:00 22 11 Nordeste 21 Este 0 -- -- 71
2018-08-02 03:00:00 21.4 14 Nordeste 27 Nordeste 0 -- -- 75
2018-08-02 02:00:00 21.9 10 Nordeste 22 Nordeste 0 -- -- 72
2018-08-02 01:00:00 21.7 13 Nordeste 22 Norte 0 -- -- 75
2018-08-02 00:00:00 22.2 10 Nordeste 27 Nordeste 0 -- -- 74
2018-08-01 23:00:00 21.9 14 Nordeste 24 Este 0 -- -- 83
2018-08-01 22:00:00 22.9 13 Nordeste 31 Nordeste 0 -- -- 74
2018-08-01 21:00:00 22.9 15 Nordeste 30 Nordeste 0 -- -- 75
2018-08-01 20:00:00 23.5 13 Nordeste 31 Este 0 -- -- 69
2018-08-01 19:00:00 23.9 18 Nordeste 34 Este 0 -- -- 66
2018-08-01 18:00:00 24.4 21 Nordeste 39 Nordeste 0 -- -- 65
2018-08-01 17:00:00 24.6 24 Norte 38 Norte 0 -- -- 66
2018-08-01 16:00:00 25.8 16 Nordeste 34 Nordeste 0 -- -- 60
2018-08-01 15:00:00 25.4 18 Nordeste 48 Norte 0 -- -- 63
2018-08-01 14:00:00 24.8 21 Norte 37 Nordeste 0 -- -- 68
2018-08-01 13:00:00 24 21 Nordeste 37 Nordeste 0 -- -- 69
2018-08-01 12:00:00 24.2 21 Nordeste 33 Norte 0 -- -- 68
2018-08-01 11:00:00 23.5 17 Nordeste 30 Nordeste 0 -- -- 70
2018-08-01 10:00:00 23.1 17 Nordeste 33 Este 0 -- -- 69
2018-08-01 09:00:00 22.7 17 Nordeste 33 Nordeste 0 -- -- 68
2018-08-01 08:00:00 22.7 17 Este 34 Nordeste 0 -- -- 66
2018-08-01 07:00:00 22.5 21 Nordeste 37 Nordeste 0 -- -- 69
2018-08-01 06:00:00 22.2 17 Nordeste 42 Nordeste 0 -- -- 77
2018-08-01 05:00:00 22.6 17 Nordeste 35 Nordeste 0 -- -- 72
2018-08-01 04:00:00 22.4 19 Este 38 Este 0 -- -- 75
2018-08-01 03:00:00 22.3 21 Nordeste 38 Nordeste 0 -- -- 74
2018-08-01 02:00:00 22.2 21 Nordeste 39 Nordeste 0 -- -- 78
2018-08-01 01:00:00 22.3 23 Nordeste 37 Nordeste 0 -- -- 73
2018-08-01 00:00:00 22.4 20 Nordeste 40 Nordeste 0 -- -- 74
2018-07-31 23:00:00 22.6 22 Nordeste 40 Nordeste 0 -- -- 68
2018-07-31 22:00:00 22.6 21 Nordeste 37 Nordeste 0 -- -- 73
2018-07-31 21:00:00 22.7 24 Nordeste 39 Este 0 -- -- 69
2018-07-31 20:00:00 23 22 Nordeste 44 Nordeste 0 -- -- 68
2018-07-31 19:00:00 23.5 21 Nordeste 46 Nordeste 0 -- -- 64
2018-07-31 18:00:00 24.1 26 Nordeste 58 Nordeste 0 -- -- 64
2018-07-31 17:00:00 24.8 27 Nordeste 53 Nordeste 0 -- -- 61
2018-07-31 16:00:00 24.9 32 Nordeste 55 Nordeste 0 -- -- 63
2018-07-31 15:00:00 25.2 25 Nordeste 54 Nordeste 0 -- -- 60
2018-07-31 14:00:00 24.4 30 Nordeste 51 Nordeste 0 -- -- 63
2018-07-31 13:00:00 23.7 27 Nordeste 47 Nordeste 0 -- -- 65
2018-07-31 12:00:00 23.6 28 Nordeste 50 Nordeste 0 -- -- 65
2018-07-31 11:00:00 23.1 24 Nordeste 51 Nordeste 0 -- -- 68
2018-07-31 10:00:00 22.8 25 Nordeste 45 Nordeste 0 -- -- 68
2018-07-31 09:00:00 22.2 21 Nordeste 41 Nordeste 0 -- -- 73
2018-07-31 08:00:00 22 21 Nordeste 38 Nordeste 0 -- -- 74
2018-07-31 07:00:00 21.9 23 Nordeste 46 Nordeste 0 -- -- 76
2018-07-31 06:00:00 21.8 22 Nordeste 43 Nordeste 0 -- -- 76
2018-07-31 05:00:00 22.1 22 Nordeste 48 Nordeste 0 -- -- 76
2018-07-31 04:00:00 22.2 30 Nordeste 47 Nordeste 0 -- -- 73
2018-07-31 03:00:00 22.4 28 Norte 46 Nordeste 0 -- -- 72
2018-07-31 02:00:00 22.5 25 Nordeste 51 Norte 0 -- -- 73
2018-07-31 01:00:00 22.7 31 Norte 53 Norte 0 -- -- 70
2018-07-31 00:00:00 22.6 33 Nordeste 55 Nordeste 0 -- -- 70
2018-07-30 23:00:00 23.3 38 Nordeste 60 Nordeste 0 -- -- 66
2018-07-30 22:00:00 23.5 35 Norte 55 Norte 0 -- -- 65
2018-07-30 21:00:00 23 31 Nordeste 56 Nordeste 0 -- -- 69
2018-07-30 20:00:00 23.5 33 Nordeste 60 Nordeste 0 -- -- 69
2018-07-30 19:00:00 24.4 27 Nordeste 51 Nordeste 0 -- -- 65
2018-07-30 18:00:00 25.1 28 Nordeste 49 Nordeste 0 -- -- 64
2018-07-30 17:00:00 25.9 28 Nordeste 51 Nordeste 0 -- -- 62
2018-07-30 16:00:00 26.4 24 Norte 46 Norte 0 -- -- 59
2018-07-30 15:00:00 25.8 28 Nordeste 43 Nordeste 0 -- -- 62
2018-07-30 14:00:00 27 16 Nordeste 29 Nordeste 0 -- -- 58
2018-07-30 13:00:00 26.9 9 Este 41 Nordeste 0 -- -- 59
2018-07-30 12:00:00 24.9 23 Nordeste 45 Nordeste 0 -- -- 65
2018-07-30 11:00:00 24.5 18 Nordeste 39 Este 0 -- -- 65
2018-07-30 10:00:00 23.5 17 Nordeste 32 Nordeste 0 -- -- 68
2018-07-30 09:00:00 22.4 12 Nordeste 37 Nordeste 0 -- -- 72
2018-07-30 08:00:00 21.5 10 Este 30 Nordeste 0 -- -- 74
2018-07-30 07:00:00 21.5 11 Sudeste 32 Nordeste 0 -- -- 73
2018-07-30 06:00:00 21.5 14 Este 31 Nordeste 0 -- -- 74
2018-07-30 05:00:00 22.1 17 Sur 34 Sudeste 0 -- -- 77
2018-07-30 04:00:00 21.7 12 Sudoeste 20 Este 0 -- -- 73
2018-07-30 03:00:00 21.7 5 Sur 23 Noroeste 0 -- -- 74
2018-07-30 02:00:00 21.8 9 Norte 26 Norte 0 -- -- 75
2018-07-30 01:00:00 22 9 Sur 38 Este 0 -- -- 74
2018-07-30 00:00:00 22.1 14 Nordeste 35 Nordeste 0 -- -- 74
2018-07-29 23:00:00 22.1 15 Nordeste 35 Nordeste 0 -- -- 75
2018-07-29 22:00:00 22.2 19 Nordeste 34 Nordeste 0 -- -- 76
2018-07-29 21:00:00 22.7 15 Nordeste 27 Nordeste 0 -- -- 74
2018-07-29 20:00:00 24 15 Nordeste 36 Nordeste 0 -- -- 70
2018-07-29 19:00:00 24.7 18 Nordeste 42 Nordeste 0 -- -- 68
2018-07-29 18:00:00 25.3 21 Nordeste 41 Nordeste 0 -- -- 65
2018-07-29 17:00:00 25.9 18 Nordeste 31 Este 0 -- -- 64
2018-07-29 16:00:00 26.5 14 Nordeste 30 Nordeste 0 -- -- 62
2018-07-29 15:00:00 26.6 12 Norte 25 Norte 0 -- -- 62
2018-07-29 14:00:00 24.4 7 Sudeste 15 Sudeste 0 -- -- 75
2018-07-29 13:00:00 24.8 7 Sur 10 Sur 0 -- -- 72
2018-07-29 12:00:00 25.4 5 Sur 9 Oeste 0 -- -- 71
2018-07-29 11:00:00 24.3 5 Oeste 10 Sudoeste 0 -- -- 75
2018-07-29 10:00:00 23.7 7 Sudeste 29 Nordeste 0 -- -- 72
2018-07-29 09:00:00 22.4 16 Este 31 Nordeste 0 -- -- 72
2018-07-29 08:00:00 21.6 14 Este 34 Nordeste 0 -- -- 77
2018-07-29 07:00:00 21.6 16 Nordeste 35 Nordeste 0 -- -- 76
2018-07-29 06:00:00 21.9 9 Este 33 Este 0 -- -- 74
2018-07-29 05:00:00 21.8 11 Nordeste 32 Nordeste 0 -- -- 76
2018-07-29 04:00:00 21.8 15 Nordeste 40 Este 0 -- -- 77
2018-07-29 03:00:00 21.7 18 Nordeste 42 Nordeste 0 -- -- 78
2018-07-29 02:00:00 21.9 12 Este 42 Este 0 -- -- 77
2018-07-29 01:00:00 21.8 19 Nordeste 44 Nordeste 0 -- -- 79
2018-07-29 00:00:00 22 17 Nordeste 38 Nordeste 0 -- -- 77
2018-07-28 23:00:00 22 17 Nordeste 36 Nordeste 0 -- -- 78
2018-07-28 22:00:00 22 19 Nordeste 41 Nordeste 0 -- -- 76
2018-07-28 21:00:00 22.4 21 Nordeste 41 Nordeste 0 -- -- 73
2018-07-28 20:00:00 23 21 Nordeste 45 Nordeste 0 -- -- 72
2018-07-28 19:00:00 24 26 Nordeste 52 Nordeste 0 -- -- 65
2018-07-28 18:00:00 24.4 28 Nordeste 54 Nordeste 0 -- -- 66
2018-07-28 17:00:00 25 27 Nordeste 51 Nordeste 0 -- -- 62
2018-07-28 16:00:00 25.2 22 Nordeste 46 Nordeste 0 -- -- 63
2018-07-28 15:00:00 24.7 32 Nordeste 57 Nordeste 0 -- -- 62
2018-07-28 14:00:00 24.6 33 Nordeste 55 Nordeste 0 -- -- 63
2018-07-28 13:00:00 24.7 31 Nordeste 60 Nordeste 0 -- -- 61
2018-07-28 12:00:00 23.9 36 Nordeste 60 Nordeste 0 -- -- 65
2018-07-28 11:00:00 23.2 34 Norte 63 Nordeste 0 -- -- 70
2018-07-28 10:00:00 22.9 31 Nordeste 59 Nordeste 0 -- -- 71
2018-07-28 09:00:00 22.3 27 Nordeste 51 Nordeste 0 -- -- 69
2018-07-28 08:00:00 21.8 28 Nordeste 48 Nordeste 0 -- -- 74
2018-07-28 07:00:00 21.8 24 Norte 46 Nordeste 0 -- -- 77
2018-07-28 06:00:00 21.8 19 Nordeste 46 Nordeste 0 -- -- 72
2018-07-28 05:00:00 21.9 23 Nordeste 43 Nordeste 0 -- -- 75
2018-07-28 04:00:00 21.8 20 Nordeste 51 Nordeste 0 -- -- 73
2018-07-28 03:00:00 22.2 25 Nordeste 51 Este 0 -- -- 69
2018-07-28 02:00:00 22.3 22 Nordeste 50 Nordeste 0 -- -- 69
2018-07-28 01:00:00 22.2 23 Nordeste 47 Nordeste 0 -- -- 68
2018-07-28 00:00:00 22.2 23 Norte 45 Nordeste 0 -- -- 69
2018-07-27 23:00:00 21.9 26 Norte 49 Nordeste 0 -- -- 73
2018-07-27 22:00:00 22 23 Norte 50 Nordeste 0 -- -- 71
2018-07-27 21:00:00 22.4 25 Nordeste 53 Nordeste 0 -- -- 68
2018-07-27 20:00:00 22.9 34 Nordeste 57 Nordeste 0 -- -- 67
2018-07-27 19:00:00 23.4 28 Nordeste 52 Nordeste 0 -- -- 65
2018-07-27 18:00:00 23.9 33 Nordeste 53 Nordeste 0 -- -- 59
2018-07-27 17:00:00 24.3 27 Nordeste 53 Norte 0 -- -- 61
2018-07-27 16:00:00 24.8 29 Nordeste 57 Norte 0 -- -- 62
2018-07-27 15:00:00 24.8 33 Nordeste 56 Nordeste 0 -- -- 56
2018-07-27 14:00:00 24.5 34 Nordeste 55 Nordeste 0 -- -- 56
2018-07-27 13:00:00 23.1 31 Nordeste 54 Este 0 -- -- 64
2018-07-27 12:00:00 23.4 28 Nordeste 53 Nordeste 0 -- -- 63
2018-07-27 11:00:00 22.9 26 Nordeste 59 Nordeste 0 -- -- 66
2018-07-27 10:00:00 22.4 31 Nordeste 46 Nordeste 0 -- -- 67
2018-07-27 09:00:00 21.8 28 Nordeste 41 Nordeste 0 -- -- 72
2018-07-27 08:00:00 21.6 23 Nordeste 44 Nordeste 0 -- -- 69
2018-07-27 07:00:00 21.4 23 Nordeste 41 Nordeste 0 -- -- 71
2018-07-27 06:00:00 22 17 Nordeste 39 Nordeste 0 -- -- 66
2018-07-27 05:00:00 21.7 22 Nordeste 36 Nordeste 0 -- -- 73
2018-07-27 04:00:00 21.9 20 Nordeste 41 Este 0 -- -- 68
2018-07-27 03:00:00 21.5 18 Nordeste 39 Nordeste 0 -- -- 70
2018-07-27 02:00:00 21.7 22 Nordeste 41 Nordeste 0 -- -- 73
2018-07-27 01:00:00 22.1 18 Nordeste 38 Este 0 -- -- 68
2018-07-27 00:00:00 22.2 21 Este 39 Nordeste 0 -- -- 66
2018-07-26 23:00:00 22.3 23 Nordeste 53 Este 0 -- -- 65
2018-07-26 22:00:00 22.3 22 Nordeste 45 Nordeste 0 -- -- 67
2018-07-26 21:00:00 22.2 26 Nordeste 43 Nordeste 0 -- -- 73
2018-07-26 20:00:00 22.8 26 Nordeste 42 Nordeste 0 -- -- 73
2018-07-26 19:00:00 23.6 24 Nordeste 50 Nordeste 0 -- -- 62
2018-07-26 18:00:00 24.7 30 Nordeste 51 Nordeste 0 -- -- 56
2018-07-26 17:00:00 24.4 33 Nordeste 53 Este 0 -- -- 57
2018-07-26 16:00:00 24.4 27 Nordeste 56 Nordeste 0 -- -- 64
2018-07-26 15:00:00 24.5 27 Nordeste 46 Nordeste 0 -- -- 62
2018-07-26 14:00:00 24.8 26 Nordeste 51 Este 0 -- -- 59
2018-07-26 13:00:00 24.7 28 Nordeste 57 Nordeste 0 -- -- 60
2018-07-26 12:00:00 24.8 23 Nordeste 56 Nordeste 0 -- -- 61
2018-07-26 11:00:00 23.9 28 Nordeste 58 Este 0 -- -- 58
2018-07-26 10:00:00 23.4 26 Nordeste 49 Nordeste 0 -- -- 63
2018-07-26 09:00:00 22.5 27 Nordeste 45 Nordeste 0 -- -- 67
2018-07-26 08:00:00 21.5 24 Nordeste 55 Nordeste 0 -- -- 71
2018-07-26 07:00:00 21.5 26 Nordeste 54 Nordeste 0 -- -- 71
2018-07-26 06:00:00 21.6 30 Nordeste 46 Nordeste 0 -- -- 74
2018-07-26 05:00:00 21.7 23 Nordeste 45 Nordeste 0 -- -- 70
2018-07-26 04:00:00 21.7 26 Nordeste 49 Nordeste 0 -- -- 70
2018-07-26 03:00:00 21.7 28 Nordeste 47 Nordeste 0 -- -- 69
2018-07-26 02:00:00 21.6 28 Nordeste 49 Nordeste 0 -- -- 73
2018-07-26 01:00:00 21.7 27 Nordeste 49 Nordeste 0 -- -- 73
2018-07-26 00:00:00 21.7 27 Nordeste 50 Nordeste 0 -- -- 73
2018-07-25 23:00:00 21.8 23 Nordeste 47 Nordeste 0 -- -- 73
2018-07-25 22:00:00 22 19 Nordeste 50 Nordeste 0 -- -- 72
2018-07-25 21:00:00 22.1 26 Nordeste 48 Norte 0 -- -- 74
2018-07-25 20:00:00 22.7 30 Nordeste 48 Nordeste 0 -- -- 70
2018-07-25 19:00:00 23.8 24 Norte 43 Norte 0 -- -- 66
2018-07-25 18:00:00 24.4 26 Nordeste 48 Norte 0 -- -- 61
2018-07-25 17:00:00 24.8 23 Nordeste 50 Nordeste 0 -- -- 62
2018-07-25 16:00:00 24.6 27 Nordeste 49 Nordeste 0 -- -- 60
2018-07-25 15:00:00 24.2 23 Nordeste 50 Nordeste 0 -- -- 64
2018-07-25 14:00:00 24.5 24 Nordeste 41 Nordeste 0 -- -- 61
2018-07-25 13:00:00 24.3 21 Nordeste 43 Nordeste 0 -- -- 63
2018-07-25 12:00:00 23.5 22 Nordeste 44 Nordeste 0 -- -- 66
2018-07-25 11:00:00 22.6 23 Nordeste 44 Norte 0 -- -- 71
2018-07-25 10:00:00 22.7 22 Nordeste 42 Nordeste 0 -- -- 68
2018-07-25 09:00:00 21.7 22 Nordeste 41 Nordeste 0 -- -- 74
2018-07-25 08:00:00 21.6 25 Nordeste 47 Nordeste 0 -- -- 73
2018-07-25 07:00:00 21.6 22 Nordeste 46 Nordeste 0 -- -- 74
2018-07-25 06:00:00 21.3 22 Nordeste 44 Nordeste 0 -- -- 76
2018-07-25 05:00:00 21.3 22 Nordeste 42 Nordeste 0 -- -- 75
2018-07-25 04:00:00 21.3 21 Nordeste 45 Nordeste 0 -- -- 75
2018-07-25 03:00:00 21.6 23 Nordeste 40 Nordeste 0 -- -- 74
2018-07-25 02:00:00 21.6 26 Norte 45 Nordeste 0 -- -- 72
2018-07-25 01:00:00 21.7 25 Nordeste 47 Nordeste 0 -- -- 74
2018-07-25 00:00:00 21.7 24 Nordeste 46 Nordeste 0 -- -- 76
2018-07-24 23:00:00 22.1 24 Nordeste 49 Nordeste 0 -- -- 70
2018-07-24 22:00:00 21.9 26 Nordeste 43 Norte 0 -- -- 72
2018-07-24 21:00:00 22.1 24 Nordeste 46 Norte 0 -- -- 71
2018-07-24 20:00:00 22.6 23 Nordeste 49 Norte 0 -- -- 69
2018-07-24 19:00:00 23.3 27 Norte 45 Norte 0 -- -- 67
2018-07-24 18:00:00 24 26 Norte 48 Norte 0 -- -- 64
2018-07-24 17:00:00 24.1 30 Norte 53 Norte 0 -- -- 65
2018-07-24 16:00:00 24.5 26 Nordeste 51 Norte 0 -- -- 62
2018-07-24 15:00:00 24.6 27 Nordeste 57 Nordeste 0 -- -- 60
2018-07-24 14:00:00 24.6 25 Nordeste 42 Norte 0 -- -- 60
2018-07-24 13:00:00 24 22 Nordeste 42 Nordeste 0 -- -- 63
2018-07-24 12:00:00 23.6 23 Norte 43 Norte 0 -- -- 66
2018-07-24 11:00:00 23.5 25 Nordeste 47 Nordeste 0 -- -- 65
2018-07-24 10:00:00 22.6 22 Nordeste 47 Este 0 -- -- 69
2018-07-24 09:00:00 21.9 26 Nordeste 43 Nordeste 0 -- -- 71
2018-07-24 08:00:00 21.4 24 Nordeste 48 Nordeste 0 -- -- 73
2018-07-24 07:00:00 21.2 22 Nordeste 43 Norte 0 -- -- 73
2018-07-24 06:00:00 21.5 26 Nordeste 44 Nordeste 0 -- -- 72
2018-07-24 05:00:00 21.4 23 Nordeste 38 Nordeste 0 -- -- 76
2018-07-24 04:00:00 21.4 22 Nordeste 44 Nordeste 0 -- -- 75
2018-07-24 03:00:00 21.5 26 Nordeste 49 Este 0 -- -- 76
2018-07-24 02:00:00 21.5 24 Nordeste 45 Nordeste 0 -- -- 75
2018-07-24 01:00:00 21.7 24 Nordeste 42 Nordeste 0 -- -- 73
2018-07-24 00:00:00 21.9 24 Nordeste 39 Nordeste 0 -- -- 71
2018-07-23 23:00:00 21.8 23 Nordeste 40 Nordeste 0 -- -- 73
2018-07-23 22:00:00 21.9 21 Nordeste 40 Nordeste 0 -- -- 74
2018-07-23 21:00:00 22.1 24 Norte 48 Norte 0 -- -- 71
2018-07-23 20:00:00 22.9 30 Norte 46 Norte 0 -- -- 67
2018-07-23 19:00:00 23.7 26 Norte 46 Norte 0 -- -- 66
2018-07-23 18:00:00 24.4 26 Norte 45 Nordeste 0 -- -- 63
2018-07-23 17:00:00 25.2 26 Nordeste 52 Nordeste 0 -- -- 58
2018-07-23 16:00:00 25.3 27 Norte 50 Nordeste 0 -- -- 58
2018-07-23 15:00:00 24.6 30 Nordeste 50 Nordeste 0 -- -- 59
2018-07-23 14:00:00 24.6 27 Nordeste 51 Nordeste 0 -- -- 59
2018-07-23 13:00:00 24.2 25 Nordeste 47 Nordeste 0 -- -- 62
2018-07-23 12:00:00 23.4 27 Nordeste 46 Norte 0 -- -- 66
2018-07-23 11:00:00 22.9 22 Norte 41 Nordeste 0 -- -- 68
2018-07-23 10:00:00 22.8 20 Nordeste 45 Nordeste 0 -- -- 65
2018-07-23 09:00:00 22.2 23 Nordeste 44 Nordeste 0 -- -- 69
2018-07-23 08:00:00 21.5 20 Nordeste 42 Nordeste 0 -- -- 75
2018-07-23 07:00:00 21.4 26 Nordeste 42 Nordeste 0 -- -- 68
2018-07-23 06:00:00 21.5 22 Nordeste 49 Norte 0 -- -- 68
2018-07-23 05:00:00 21.3 23 Nordeste 38 Nordeste 0 -- -- 74
2018-07-23 04:00:00 21.4 22 Nordeste 45 Nordeste 0 -- -- 75
2018-07-23 03:00:00 21.3 24 Nordeste 43 Norte 0 -- -- 74
2018-07-23 02:00:00 21.4 26 Nordeste 49 Nordeste 0 -- -- 74
2018-07-23 01:00:00 21.7 22 Nordeste 46 Nordeste 0 -- -- 69
2018-07-23 00:00:00 21.5 23 Norte 47 Nordeste 0 -- -- 73
2018-07-22 23:00:00 21.7 22 Norte 47 Nordeste 0 -- -- 69
2018-07-22 22:00:00 21.6 26 Nordeste 52 Nordeste 0 -- -- 70
2018-07-22 21:00:00 21.7 35 Norte 48 Norte 0 -- -- 69
2018-07-22 20:00:00 22.7 29 Norte 46 Norte 0 -- -- 68
2018-07-22 19:00:00 23.4 24 Nordeste 48 Nordeste 0 -- -- 66
2018-07-22 18:00:00 23.9 24 Nordeste 43 Norte 0 -- -- 63
2018-07-22 17:00:00 24.3 28 Norte 45 Norte 0 -- -- 61
2018-07-22 16:00:00 24.5 24 Norte 48 Nordeste 0 -- -- 59
2018-07-22 15:00:00 23.7 28 Norte 51 Norte 0 -- -- 60
2018-07-22 14:00:00 24 28 Nordeste 51 Nordeste 0 -- -- 61
2018-07-22 13:00:00 23.9 24 Nordeste 49 Este 0 -- -- 58
2018-07-22 12:00:00 23.1 24 Nordeste 45 Nordeste 0 -- -- 63
2018-07-22 11:00:00 22.6 23 Nordeste 44 Nordeste 0 -- -- 65
2018-07-22 10:00:00 21.8 22 Nordeste 40 Nordeste 0 -- -- 67
2018-07-22 09:00:00 21.3 19 Nordeste 38 Nordeste 0 -- -- 70
2018-07-22 08:00:00 21.1 22 Nordeste 41 Nordeste 0 -- -- 71
2018-07-22 07:00:00 21 20 Nordeste 36 Nordeste 0 -- -- 70
2018-07-22 06:00:00 21.1 20 Nordeste 35 Nordeste 0 -- -- 69
2018-07-22 05:00:00 21 19 Nordeste 30 Nordeste 0 -- -- 70
2018-07-22 04:00:00 21 18 Nordeste 37 Nordeste 0 -- -- 71
2018-07-22 03:00:00 21.1 21 Nordeste 37 Norte 0 -- -- 73
2018-07-22 02:00:00 21.3 21 Nordeste 37 Nordeste 0 -- -- 72
2018-07-22 01:00:00 21.4 23 Nordeste 45 Nordeste 0 -- -- 72
2018-07-22 00:00:00 21.4 23 Nordeste 44 Norte 0 -- -- 75
2018-07-21 23:00:00 21.4 23 Nordeste 39 Nordeste 0 -- -- 74
2018-07-21 22:00:00 21.6 20 Nordeste 57 Norte 0 -- -- 76
2018-07-21 21:00:00 21.9 25 Nordeste 47 Nordeste 0 -- -- 75
2018-07-21 20:00:00 22.4 31 Nordeste 60 Norte 0 -- -- 69
2018-07-21 19:00:00 23.2 30 Nordeste 51 Norte 0 -- -- 69
2018-07-21 18:00:00 23.8 28 Nordeste 59 Norte 0 -- -- 66
2018-07-21 17:00:00 23.6 32 Nordeste 53 Norte 0 -- -- 68
2018-07-21 16:00:00 24.2 31 Norte 53 Norte 0 -- -- 65
2018-07-21 15:00:00 24.1 31 Norte 53 Norte 0 -- -- 63
2018-07-21 14:00:00 23.9 33 Norte 59 Nordeste 0 -- -- 65
2018-07-21 13:00:00 24 28 Norte 58 Norte 0 -- -- 68
2018-07-21 12:00:00 23.5 30 Nordeste 55 Nordeste 0 -- -- 70
2018-07-21 11:00:00 23.4 28 Nordeste 49 Nordeste 0 -- -- 69
2018-07-21 10:00:00 22 26 Nordeste 49 Este 0 -- -- 75
2018-07-21 09:00:00 21.6 29 Nordeste 48 Nordeste 0 -- -- 78
2018-07-21 08:00:00 21.5 26 Nordeste 41 Nordeste 0 -- -- 78
2018-07-21 07:00:00 21.3 27 Nordeste 44 Nordeste 0 -- -- 80
2018-07-21 06:00:00 21.5 23 Nordeste 46 Nordeste 0 -- -- 75
2018-07-21 05:00:00 21.4 30 Norte 46 Norte 0 -- -- 76
2018-07-21 04:00:00 21.3 33 Nordeste 50 Norte 0 -- -- 77
2018-07-21 03:00:00 21.3 33 Nordeste 55 Nordeste 0 -- -- 75
2018-07-21 02:00:00 21.3 31 Nordeste 52 Norte 0 -- -- 77
2018-07-21 01:00:00 21.5 32 Nordeste 51 Nordeste 0 -- -- 75
2018-07-21 00:00:00 21.5 29 Nordeste 50 Nordeste 0 -- -- 76
2018-07-20 23:00:00 21.6 32 Norte 58 Norte 0 -- -- 75
2018-07-20 22:00:00 21.7 31 Norte 52 Nordeste 0 -- -- 76
2018-07-20 21:00:00 21.8 32 Norte 46 Nordeste 0 -- -- 74
2018-07-20 20:00:00 22.4 31 Nordeste 48 Nordeste 0 -- -- 73
2018-07-20 19:00:00 23 34 Norte 55 Norte 0 -- -- 69
2018-07-20 18:00:00 23.7 34 Norte 52 Nordeste 0 -- -- 66
2018-07-20 17:00:00 24.3 32 Norte 50 Norte 0 -- -- 63
2018-07-20 16:00:00 24.2 32 Norte 55 Norte 0 -- -- 66
2018-07-20 15:00:00 24 32 Nordeste 52 Norte 0 -- -- 65
2018-07-20 14:00:00 23.7 33 Norte 51 Nordeste 0 -- -- 66
2018-07-20 13:00:00 23.6 29 Norte 52 Norte 0 -- -- 66
2018-07-20 12:00:00 23.3 31 Norte 56 Norte 0 -- -- 67
2018-07-20 11:00:00 22.9 26 Norte 46 Nordeste 0 -- -- 69
2018-07-20 10:00:00 22 32 Nordeste 57 Norte 0 -- -- 71
2018-07-20 09:00:00 21.4 29 Nordeste 51 Nordeste 0 -- -- 74
2018-07-20 08:00:00 21 31 Nordeste 51 Nordeste 0 -- -- 75
2018-07-20 07:00:00 20.9 31 Nordeste 53 Norte 0 -- -- 77
2018-07-20 06:00:00 20.9 34 Nordeste 58 Nordeste 0 -- -- 76
2018-07-20 05:00:00 21 31 Nordeste 54 Nordeste 0 -- -- 76
2018-07-20 04:00:00 21.1 30 Nordeste 50 Norte 0 -- -- 76
2018-07-20 03:00:00 21.1 32 Norte 55 Norte 0 -- -- 77
2018-07-20 02:00:00 21.2 34 Nordeste 55 Nordeste 0 -- -- 76
2018-07-20 01:00:00 21.4 34 Norte 56 Nordeste 0 -- -- 75
2018-07-20 00:00:00 21.5 35 Nordeste 53 Nordeste 0 -- -- 73